createdAt,value
2022-10-03T00:01:00.872Z,1.83
2022-10-03T00:03:54.544Z,1.90
2022-10-03T00:06:53.184Z,1.57
2022-10-03T00:09:59.873Z,2.42
2022-10-03T00:12:54.532Z,2.15
2022-10-03T00:16:04.416Z,2.30
2022-10-03T00:19:06.100Z,2.08
2022-10-03T00:22:14.776Z,2.20
2022-10-03T00:25:15.527Z,2.57
2022-10-03T00:28:15.020Z,2.13
2022-10-03T00:31:24.409Z,2.95
2022-10-03T00:34:25.017Z,2.20
2022-10-03T00:37:24.645Z,1.83
2022-10-03T00:40:23.117Z,1.88
2022-10-03T00:43:20.808Z,2.03
2022-10-03T00:46:06.710Z,2.80
2022-10-03T00:49:07.129Z,1.70
2022-10-03T00:52:20.899Z,2.30
2022-10-03T00:55:24.824Z,1.85
2022-10-03T00:58:45.150Z,2.35
2022-10-03T01:01:49.817Z,2.37
2022-10-03T01:05:09.521Z,1.93
2022-10-03T01:08:32.659Z,2.17
2022-10-03T01:11:51.890Z,1.98
2022-10-03T01:15:03.773Z,2.17
2022-10-03T01:18:09.156Z,2.10
2022-10-03T01:21:22.227Z,1.97
2022-10-03T01:24:13.959Z,2.03
2022-10-03T01:27:06.708Z,2.53
2022-10-03T01:30:17.660Z,2.33
2022-10-03T01:33:16.003Z,2.27
2022-10-03T01:36:12.583Z,2.17
2022-10-03T01:39:05.036Z,2.77
2022-10-03T01:42:13.604Z,1.83
2022-10-03T01:45:08.778Z,2.40
2022-10-03T01:48:42.725Z,2.67
2022-10-03T01:52:00.604Z,2.37
2022-10-03T01:55:20.826Z,2.40
2022-10-03T01:58:20.352Z,2.40
2022-10-03T02:01:24.800Z,2.60
2022-10-03T02:04:22.996Z,2.57
2022-10-03T02:07:08.520Z,3.60
2022-10-03T02:10:09.066Z,2.17
2022-10-03T02:13:15.909Z,3.53
2022-10-03T02:16:11.585Z,2.60
2022-10-03T02:19:06.337Z,2.70
2022-10-03T02:21:55.263Z,2.70
2022-10-03T02:24:49.357Z,2.60
2022-10-03T02:27:58.841Z,2.77
2022-10-03T02:31:09.396Z,2.50
2022-10-03T02:34:23.859Z,2.57
2022-10-03T02:37:40.863Z,2.77
2022-10-03T02:40:48.360Z,2.00
2022-10-03T02:44:03.674Z,2.60
2022-10-03T02:47:08.352Z,2.70
2022-10-03T02:50:13.715Z,2.47
2022-10-03T02:53:08.927Z,2.23
2022-10-03T02:56:35.382Z,2.00
2022-10-03T02:59:44.544Z,2.67
2022-10-03T03:02:48.489Z,1.80
2022-10-03T03:05:58.789Z,2.30
2022-10-03T03:08:53.773Z,2.53
2022-10-03T03:12:02.784Z,2.13
2022-10-03T03:15:16.207Z,2.60
2022-10-03T03:18:35.016Z,2.53
2022-10-03T03:21:29.859Z,2.20
2022-10-03T03:24:24.339Z,2.43
2022-10-03T03:27:22.197Z,2.50
2022-10-03T03:30:23.496Z,2.53
2022-10-03T03:33:31.796Z,2.13
2022-10-03T03:36:38.855Z,2.23
2022-10-03T03:39:54.519Z,2.33
2022-10-03T03:42:56.608Z,2.00
2022-10-03T03:46:00.808Z,2.37
2022-10-03T03:49:02.208Z,2.50
2022-10-03T03:52:01.964Z,3.20
2022-10-03T03:54:47.369Z,2.43
2022-10-03T03:57:49.801Z,2.40
2022-10-03T04:01:03.559Z,2.07
2022-10-03T04:04:00.916Z,2.60
2022-10-03T04:07:08.852Z,1.67
2022-10-03T04:10:26.737Z,2.30
2022-10-03T04:13:32.087Z,1.87
2022-10-03T04:16:45.545Z,2.00
2022-10-03T04:20:09.874Z,2.70
2022-10-03T04:23:16.263Z,2.43
2022-10-03T04:26:11.534Z,2.60
2022-10-03T04:29:18.212Z,2.47
2022-10-03T04:32:29.425Z,2.57
2022-10-03T04:35:42.437Z,2.50
2022-10-03T04:38:54.580Z,2.53
2022-10-03T04:41:55.452Z,3.27
2022-10-03T04:45:16.622Z,2.50
2022-10-03T04:48:33.352Z,2.50
2022-10-03T04:51:36.100Z,2.00
2022-10-03T04:54:24.509Z,2.10
2022-10-03T04:57:31.350Z,2.27
2022-10-03T05:00:49.653Z,2.60
2022-10-03T05:03:47.696Z,2.50
2022-10-03T05:07:08.367Z,2.43
2022-10-03T05:10:17.035Z,1.93
2022-10-03T05:13:11.554Z,2.83
2022-10-03T05:16:09.763Z,2.37
2022-10-03T05:19:29.561Z,2.47
2022-10-03T05:22:28.060Z,2.30
2022-10-03T05:25:34.675Z,2.50
2022-10-03T05:28:27.116Z,2.30
2022-10-03T05:31:47.058Z,2.17
2022-10-03T05:34:48.753Z,2.63
2022-10-03T05:38:09.569Z,2.73
2022-10-03T05:42:04.845Z,2.10
2022-10-03T05:45:04.457Z,2.60
2022-10-03T05:48:01.521Z,2.53
2022-10-03T05:50:59.309Z,2.20
2022-10-03T05:54:05.461Z,2.77
2022-10-03T05:57:19.024Z,3.03
2022-10-03T06:00:27.209Z,3.27
2022-10-03T06:03:56.917Z,2.60
2022-10-03T06:06:56.546Z,2.30
2022-10-03T06:10:04.377Z,2.40
2022-10-03T06:13:08.276Z,2.50
2022-10-03T06:15:58.316Z,2.60
2022-10-03T06:18:49.616Z,2.93
2022-10-03T06:21:53.402Z,2.40
2022-10-03T06:25:16.538Z,2.10
2022-10-03T06:28:08.078Z,2.03
2022-10-03T06:30:53.833Z,1.90
2022-10-03T06:33:48.307Z,2.00
2022-10-03T06:37:16.341Z,1.73
2022-10-03T06:40:23.523Z,2.30
2022-10-03T06:43:30.079Z,2.47
2022-10-03T06:46:46.807Z,1.97
2022-10-03T06:49:45.659Z,1.90
2022-10-03T06:53:02.476Z,2.47
2022-10-03T06:56:21.685Z,1.60
2022-10-03T06:59:32.400Z,2.40
2022-10-03T07:02:37.959Z,2.30
2022-10-03T07:05:47.822Z,1.80
2022-10-03T07:08:59.803Z,1.90
2022-10-03T07:12:08.615Z,2.07
2022-10-03T07:15:19.437Z,1.90
2022-10-03T07:18:32.559Z,1.80
2022-10-03T07:22:03.674Z,2.00
2022-10-03T07:25:10.880Z,2.00
2022-10-03T07:27:56.776Z,2.13
2022-10-03T07:30:48.392Z,1.87
2022-10-03T07:34:01.491Z,2.00
2022-10-03T07:37:19.245Z,2.10
2022-10-03T07:40:42.504Z,2.40
2022-10-03T07:44:11.861Z,1.63
2022-10-03T07:47:16.104Z,2.20
2022-10-03T07:50:35.577Z,1.90
2022-10-03T07:53:43.455Z,2.00
2022-10-03T07:56:50.827Z,2.00
2022-10-03T07:59:43.348Z,2.13
2022-10-03T08:02:48.476Z,1.87
2022-10-03T08:06:08.053Z,1.87
2022-10-03T08:09:01.542Z,1.67
2022-10-03T08:12:05.624Z,1.47
2022-10-03T08:15:20.625Z,2.00
2022-10-03T08:18:21.406Z,2.30
2022-10-03T08:21:25.702Z,1.45
2022-10-03T08:24:17.529Z,1.70
2022-10-03T08:27:19.973Z,1.95
2022-10-03T08:30:09.233Z,1.83
2022-10-03T08:32:55.004Z,2.22
2022-10-03T08:36:11.673Z,1.65
2022-10-03T08:39:00.078Z,1.80
2022-10-03T08:42:00.869Z,1.58
2022-10-03T08:45:20.620Z,1.50
2022-10-03T08:48:33.708Z,1.88
2022-10-03T08:51:26.333Z,1.67
2022-10-03T08:54:31.115Z,1.70
2022-10-03T08:57:46.923Z,1.33
2022-10-03T09:01:00.098Z,1.73
2022-10-03T09:04:12.414Z,2.00
2022-10-03T09:07:18.326Z,1.83
2022-10-03T09:10:35.739Z,1.80
2022-10-03T09:13:21.284Z,1.98
2022-10-03T09:16:34.799Z,1.30
2022-10-03T09:19:43.162Z,1.80
2022-10-03T09:22:47.632Z,2.00
2022-10-03T09:25:58.854Z,1.40
2022-10-03T09:29:19.288Z,2.10
2022-10-03T09:32:38.765Z,2.10
2022-10-03T09:35:33.640Z,1.80
2022-10-03T09:38:31.134Z,2.00
2022-10-03T09:41:32.420Z,2.03
2022-10-03T09:44:24.172Z,1.85
2022-10-03T09:47:35.262Z,2.15
2022-10-03T09:50:47.051Z,1.98
2022-10-03T09:53:48.145Z,2.42
2022-10-03T09:56:44.329Z,2.03
2022-10-03T09:59:48.576Z,2.28
2022-10-03T10:02:53.181Z,2.35
2022-10-03T10:06:16.591Z,2.00
2022-10-03T10:09:39.415Z,2.30
2022-10-03T10:12:39.541Z,2.22
2022-10-03T10:15:51.282Z,2.25
2022-10-03T10:18:42.528Z,2.17
2022-10-03T10:21:56.883Z,2.30
2022-10-03T10:25:00.925Z,2.30
2022-10-03T10:28:11.573Z,2.55
2022-10-03T10:31:24.938Z,2.20
2022-10-03T10:34:30.610Z,2.25
2022-10-03T10:37:54.426Z,2.15
2022-10-03T10:41:13.007Z,1.95
2022-10-03T10:44:23.357Z,1.63
2022-10-03T10:47:27.533Z,2.28
2022-10-03T10:51:05.247Z,1.73
2022-10-03T10:54:09.720Z,2.13
2022-10-03T10:57:29.616Z,3.03
2022-10-03T11:00:23.519Z,2.38
2022-10-03T11:03:45.879Z,2.35
2022-10-03T11:06:57.836Z,1.80
2022-10-03T11:09:52.208Z,1.92
2022-10-03T11:13:08.658Z,2.38
2022-10-03T11:16:35.306Z,1.73
2022-10-03T11:19:41.812Z,1.63
2022-10-03T11:22:46.079Z,2.13
2022-10-03T11:25:35.173Z,1.75
2022-10-03T11:28:58.381Z,1.83
2022-10-03T11:32:15.091Z,1.88
2022-10-03T11:35:47.496Z,1.80
2022-10-03T11:38:51.272Z,2.13
2022-10-03T11:41:46.395Z,1.65
2022-10-03T11:44:36.926Z,1.17
2022-10-03T11:47:25.288Z,1.33
2022-10-03T11:50:41.405Z,1.50
2022-10-03T11:53:33.994Z,1.30
2022-10-03T11:56:41.922Z,1.38
2022-10-03T11:59:38.038Z,1.00
2022-10-03T12:02:32.360Z,1.38
2022-10-03T12:05:39.592Z,1.65
2022-10-03T12:08:53.597Z,1.75
2022-10-03T12:11:55.552Z,1.15
2022-10-03T12:14:46.718Z,1.42
2022-10-03T12:17:37.132Z,1.98
2022-10-03T12:21:02.114Z,1.10
2022-10-03T12:23:52.090Z,1.13
2022-10-03T12:26:47.461Z,1.23
2022-10-03T12:29:36.483Z,0.95
2022-10-03T12:32:36.226Z,1.40
2022-10-03T12:35:33.385Z,1.40
2022-10-03T12:38:41.388Z,1.13
2022-10-03T12:41:48.776Z,1.05
2022-10-03T12:45:10.057Z,1.20
2022-10-03T12:48:13.271Z,0.85
2022-10-03T12:51:06.929Z,1.48
2022-10-03T12:54:26.745Z,1.15
2022-10-03T12:57:48.819Z,1.00
2022-10-03T13:00:57.758Z,1.15
2022-10-03T13:04:01.739Z,1.27
2022-10-03T13:07:04.957Z,1.17
2022-10-03T13:09:53.768Z,1.10
2022-10-03T13:13:31.538Z,1.13
2022-10-03T13:16:33.510Z,1.00
2022-10-03T13:19:27.688Z,1.20
2022-10-03T13:22:56.107Z,1.52
2022-10-03T13:26:18.415Z,1.45
2022-10-03T13:29:25.830Z,1.27
2022-10-03T13:32:44.012Z,1.40
2022-10-03T13:35:58.773Z,1.23
2022-10-03T13:39:23.871Z,0.90
2022-10-03T13:42:16.148Z,1.25
2022-10-03T13:45:21.365Z,1.40
2022-10-03T13:48:21.538Z,1.33
2022-10-03T13:51:32.229Z,1.42
2022-10-03T13:54:41.197Z,0.93
2022-10-03T13:57:33.090Z,1.10
2022-10-03T14:00:25.051Z,1.02
2022-10-03T14:03:16.235Z,1.30
2022-10-03T14:06:39.094Z,1.10
2022-10-03T14:09:34.021Z,1.10
2022-10-03T14:13:12.733Z,1.15
2022-10-03T14:16:20.541Z,1.40
2022-10-03T14:19:21.054Z,1.13
2022-10-03T14:22:48.781Z,1.25
2022-10-03T14:25:36.308Z,1.10
2022-10-03T14:28:41.384Z,1.10
2022-10-03T14:32:11.213Z,1.08
2022-10-03T14:35:23.165Z,1.10
2022-10-03T14:38:23.931Z,1.25
2022-10-03T14:41:17.527Z,1.10
2022-10-03T14:44:15.601Z,1.10
2022-10-03T14:47:07.479Z,1.00
2022-10-03T14:50:00.077Z,1.20
2022-10-03T14:52:54.483Z,1.50
2022-10-03T14:55:52.336Z,1.67
2022-10-03T14:58:48.897Z,1.60
2022-10-03T15:01:35.148Z,1.92
2022-10-03T15:04:39.315Z,1.20
2022-10-03T15:07:36.250Z,1.67
2022-10-03T15:10:26.040Z,1.75
2022-10-03T15:13:12.679Z,1.48
2022-10-03T15:16:01.828Z,1.35
2022-10-03T15:19:07.109Z,1.35
2022-10-03T15:21:55.535Z,1.67
2022-10-03T15:24:42.300Z,1.60
2022-10-03T15:27:29.025Z,4.47
2022-10-03T15:30:32.038Z,15.70
2022-10-03T15:33:29.352Z,6.35
2022-10-03T15:36:17.316Z,10.77
2022-10-03T15:39:06.387Z,6.72
2022-10-03T15:42:04.623Z,5.25
2022-10-03T15:45:06.056Z,4.43
2022-10-03T15:47:52.487Z,4.45
2022-10-03T15:50:43.572Z,2.38
2022-10-03T15:53:37.163Z,3.22
2022-10-03T15:56:26.483Z,2.60
2022-10-03T15:59:28.043Z,2.00
2022-10-03T16:02:23.698Z,1.90
2022-10-03T16:05:25.518Z,1.77
2022-10-03T16:08:20.532Z,1.40
2022-10-03T16:11:15.398Z,1.88
2022-10-03T16:14:30.108Z,1.75
2022-10-03T16:17:25.270Z,1.20
2022-10-03T16:20:36.977Z,1.85
2022-10-03T16:23:34.541Z,1.77
2022-10-03T16:26:30.125Z,2.40
2022-10-03T16:29:21.655Z,3.13
2022-10-03T16:32:14.538Z,3.60
2022-10-03T16:35:03.689Z,3.30
2022-10-03T16:37:51.430Z,2.90
2022-10-03T16:40:37.935Z,3.13
2022-10-03T16:43:25.445Z,3.13
2022-10-03T16:46:19.671Z,3.08
2022-10-03T16:50:11.496Z,3.08
2022-10-03T16:52:59.009Z,3.47
2022-10-03T16:56:00.481Z,3.25
2022-10-03T16:58:55.187Z,3.22
2022-10-03T17:01:46.210Z,2.80
2022-10-03T17:04:36.614Z,3.17
2022-10-03T17:07:30.877Z,3.15
2022-10-03T17:10:35.761Z,3.35
2022-10-03T17:13:25.327Z,3.30
2022-10-03T17:16:33.404Z,3.45
2022-10-03T17:19:40.821Z,2.90
2022-10-03T17:22:40.537Z,3.30
2022-10-03T17:25:35.603Z,2.75
2022-10-03T17:28:48.796Z,3.30
2022-10-03T17:31:48.081Z,2.72
2022-10-03T17:34:40.588Z,2.42
2022-10-03T17:37:52.307Z,2.72
2022-10-03T17:41:04.557Z,2.47
2022-10-03T17:44:31.968Z,2.72
2022-10-03T17:47:26.814Z,2.90
2022-10-03T17:50:18.789Z,2.72
2022-10-03T17:53:04.871Z,2.40
2022-10-03T17:55:56.115Z,4.72
2022-10-03T17:58:49.628Z,7.13
2022-10-03T18:01:41.366Z,4.97
2022-10-03T18:04:43.857Z,3.95
2022-10-03T18:07:30.977Z,3.45
2022-10-03T18:10:26.489Z,2.80
2022-10-03T18:13:21.554Z,2.40
2022-10-03T18:16:34.573Z,3.00
2022-10-03T18:19:57.148Z,3.38
2022-10-03T18:22:49.065Z,2.97
2022-10-03T18:26:18.642Z,2.55
2022-10-03T18:29:01.821Z,4.07
2022-10-03T18:32:13.855Z,3.70
2022-10-03T18:35:12.849Z,3.63
2022-10-03T18:38:19.505Z,3.97
2022-10-03T18:41:06.607Z,3.88
2022-10-03T18:43:58.673Z,3.42
2022-10-03T18:46:50.668Z,3.13
2022-10-03T18:49:39.690Z,3.33
2022-10-03T18:52:37.532Z,2.90
2022-10-03T18:55:29.698Z,2.78
2022-10-03T18:58:25.326Z,3.10
2022-10-03T19:01:25.176Z,3.05
2022-10-03T19:04:16.342Z,2.70
2022-10-03T19:07:09.324Z,2.85
2022-10-03T19:10:27.346Z,2.70
2022-10-03T19:13:38.259Z,2.80
2022-10-03T19:16:57.183Z,3.15
2022-10-03T19:19:58.760Z,2.80
2022-10-03T19:23:05.785Z,2.40
2022-10-03T19:25:58.361Z,2.85
2022-10-03T19:28:50.532Z,2.95
2022-10-03T19:31:41.611Z,2.60
2022-10-03T19:34:43.351Z,2.60
2022-10-03T19:38:28.048Z,3.13
2022-10-03T19:41:45.407Z,2.28
2022-10-03T19:44:31.910Z,2.47
2022-10-03T19:47:26.596Z,2.80
2022-10-03T19:50:41.524Z,2.35
2022-10-03T19:53:27.098Z,2.42
2022-10-03T19:56:16.308Z,2.15
2022-10-03T19:59:12.714Z,2.10
2022-10-03T20:02:04.612Z,2.17
2022-10-03T20:04:53.261Z,2.13
2022-10-03T20:07:57.124Z,2.20
2022-10-03T20:11:00.336Z,2.28
2022-10-03T20:13:48.664Z,1.88
2022-10-03T20:16:43.497Z,1.90
2022-10-03T20:19:36.206Z,1.90
2022-10-03T20:22:31.064Z,2.15
2022-10-03T20:25:31.361Z,1.83
2022-10-03T20:28:38.688Z,1.60
2022-10-03T20:31:26.768Z,2.20
2022-10-03T20:34:16.051Z,1.85
2022-10-03T20:37:21.375Z,1.60
2022-10-03T20:40:13.324Z,1.83
2022-10-03T20:43:16.513Z,2.40
2022-10-03T20:46:13.223Z,2.42
2022-10-03T20:49:14.041Z,1.80
2022-10-03T20:52:03.308Z,1.80
2022-10-03T20:54:58.224Z,1.90
2022-10-03T20:57:49.416Z,1.98
2022-10-03T21:00:49.349Z,1.50
2022-10-03T21:03:41.079Z,1.70
2022-10-03T21:06:37.215Z,1.80
2022-10-03T21:09:40.554Z,1.42
2022-10-03T21:12:51.771Z,1.48
2022-10-03T21:15:51.350Z,1.80
2022-10-03T21:18:42.464Z,1.58
2022-10-03T21:21:40.957Z,1.73
2022-10-03T21:24:42.626Z,1.48
2022-10-03T21:27:31.333Z,1.95
2022-10-03T21:30:23.241Z,1.65
2022-10-03T21:33:11.300Z,2.00
2022-10-03T21:36:16.010Z,2.30
2022-10-03T21:39:17.320Z,1.88
2022-10-03T21:42:41.429Z,1.90
2022-10-03T21:45:47.032Z,1.85
2022-10-03T21:48:50.821Z,2.28
2022-10-03T21:51:52.135Z,2.15
2022-10-03T21:54:52.750Z,2.00
2022-10-03T21:58:06.033Z,2.35
2022-10-03T22:01:23.088Z,2.20
2022-10-03T22:04:34.833Z,2.80
2022-10-03T22:07:40.944Z,2.25
2022-10-03T22:10:36.156Z,2.47
2022-10-03T22:13:24.961Z,2.10
2022-10-03T22:16:20.098Z,2.17
2022-10-03T22:19:14.546Z,2.45
2022-10-03T22:22:15.376Z,2.58
2022-10-03T22:25:04.002Z,2.20
2022-10-03T22:28:15.268Z,2.55
2022-10-03T22:31:20.032Z,2.70
2022-10-03T22:34:14.757Z,2.42
2022-10-03T22:37:01.117Z,2.50
2022-10-03T22:39:48.460Z,2.90
2022-10-03T22:42:40.825Z,2.47
2022-10-03T22:45:29.590Z,2.55
2022-10-03T22:48:44.920Z,2.30
2022-10-03T22:51:31.353Z,2.40
2022-10-03T22:54:18.684Z,2.20
2022-10-03T22:57:11.429Z,2.40
2022-10-03T23:00:02.077Z,2.65
2022-10-03T23:02:58.650Z,2.38
2022-10-03T23:06:03.020Z,2.45
2022-10-03T23:08:55.771Z,2.20
2022-10-03T23:11:43.606Z,2.30
2022-10-03T23:14:31.697Z,2.15
2022-10-03T23:17:34.771Z,2.38
2022-10-03T23:20:43.188Z,2.30
2022-10-03T23:23:41.370Z,1.73
2022-10-03T23:26:49.001Z,2.22
2022-10-03T23:29:34.801Z,1.77
2022-10-03T23:32:49.145Z,2.28
2022-10-03T23:35:42.949Z,2.33
2022-10-03T23:38:31.225Z,2.50
2022-10-03T23:41:30.326Z,2.63
2022-10-03T23:44:29.798Z,2.17
2022-10-03T23:47:18.972Z,2.20
2022-10-03T23:50:06.430Z,3.00
2022-10-03T23:52:56.932Z,2.55
2022-10-03T23:55:43.895Z,2.30
2022-10-03T23:58:34.928Z,2.10
